Portada
METAR-TAF:

METAR-TAF

Aeroports :

Buriram, Tailàndia

latitud: 15-13-46N, longitud: 103-15-04E, altitud: 180 m

Observació

L'informe es va fer fa 3 hores i 11 minuts, a les 13:00 UTC
Vent 2 kt del Sud/Sud-Est
Temperatura 25°C
Humitat 94%
Pressió 1006 hPa
Visibilitat: 9000 m
Núvols disperses a una alçada de 3000 ft
Cel cobert a una alçada de 10000 ft

METAR: VTUO 121300Z 16002KT 9000 SCT030 OVC100 25/24 Q1006 NOSIG

Hora: 23:11 (16:11 UTC)

Pronòstic

L'informe es va fer fa 5 hores i 11 minuts, a les 11:00 UTC
Pronòstic vàlid del 12 a les 12 UTC al 13 a les 12 UTC
Vent 5 kt del Sud/Sud-Oest
Visibilitat 10 km o més
Núvols disperses a una alçada de 3000 ft

TAF: VTUO 121100Z 1212/1312 21005KT 9999 SCT030

Observacions i pronòstics meteorològics de més de 4000 aeroports (METAR i TAF).

Les estacions disponibles són els punts grocs i vermells al mapa.

Posi el ratolí al punt desitjat per veure el nom de l'estació.

Feu clic per veure les observacions i els pronòstics meteorològics.

Per canviar el mapa: feu clic els botons verds amb una creu de color negre per apropar; al botó verd amb un guió per allunyar la imatge; o en les fletxes verdes per a mapes adjacents.


METAR-TAF: